Airfield :
LOGIN :

Register | Disclaimer

   EN    FR    IT 

 










Legend :    VFR   Marginal VFR   IFR   Intensive IFR   Very Intensive IFR
Visi :
Ceiling :
>= 8 km
>= 3000ft
5 to 8 km
1000 to 3000 ft
1500m to 5 km
500 to 1000 ft
800 to 1500m
200 to 500 ft
< 800m
< 200 ft
Symbols :   Thunderstorms  Fog  Heavy snow  Heavy precipitations  Wind > 20 kt
SIGMETs :     Misc.  Thunderstorms  Icing  Turbulence  Mountain Waves  Volcanic Ashes






- Airport Elevation : 160 ft
- IATA code : SRP


ENSO - Stord

CURRENT METAR :
  • 291320Z 20007KT CAVOK 23/07 Q1018

EXPIRED METARs :
  • 291250Z 20008KT 160V240 CAVOK 23/08 Q1018
  • 291220Z 21009KT 170V240 CAVOK 23/08 Q1018
  • 291150Z VRB07KT CAVOK 22/07 Q1018
  • 291120Z VRB06KT CAVOK 22/07 Q1018
  • 291050Z 21006KT CAVOK 21/06 Q1018

TAF TAF ENSO
Valid from the 29 at 12:00 until the 29 at 18:00 UTC


291100Z 2912/2918 17010KT CAVOK
BECMG 2914/2916 23006KT



MET'MAP, your aeronautical weather chart ! - Copyright ORBIFLY December 2007 - Disclaimer

ORBIFLY MET'MAP TEAM :

Programming & Development : Alexandra Zaïnal
Original concept : Baudouin d'Aumeries
Technical & hardware support : Manuel Goepfert
Assistance : Marc-Olivier Méhu




SOURCES & CREDITS :

   NOAA